This is the latest recevied weather packets stored in our database for station/object KE8CZD. If no packets are shown the sender has not sent any weather packets the latest 10 day(s).
| Time | Temp. | Humidity | Pressure | Rain* | Wind** | Luminosity | Snow |
|---|---|---|---|---|---|---|---|
| 1778102324 | 11.11° C | 35% | 1009.1 hPa | 0 mm | - | - | - |
| 1778101604 | 11.11° C | 35% | 1009.2 hPa | 0 mm | - | - | - |
| 1778101244 | 11.11° C | 36% | 1009.1 hPa | 0 mm | - | - | - |
| 1778100884 | 11.11° C | 37% | 1009.2 hPa | 0 mm | - | - | - |
| 1778100524 | 11.11° C | 37% | 1009.3 hPa | 0 mm | - | - | - |
| 1778100164 | 11.11° C | 37% | 1009.2 hPa | 0 mm | - | - | - |
| 1778099804 | 11.11° C | 37% | 1009.2 hPa | 0 mm | - | - | - |
| 1778099444 | 11.11° C | 36% | 1009.2 hPa | 0 mm | - | - | - |
| 1778099084 | 11.11° C | 35% | 1009.1 hPa | 0 mm | - | - | - |
| 1778098724 | 11.67° C | 34% | 1009.2 hPa | 0 mm | - | - | - |
| 1778098364 | 11.67° C | 34% | 1009.2 hPa | 0 mm | - | - | - |
| 1778098004 | 12.22° C | 32% | 1009.3 hPa | 0 mm | - | - | - |
| 1778097644 | 12.22° C | 33% | 1009.2 hPa | 0 mm | - | - | - |
| 1778097284 | 11.11° C | 36% | 1009.2 hPa | 0 mm | - | - | - |
| 1778096924 | 10.56° C | 36% | 1009.4 hPa | 0 mm | - | - | - |
| 1778096565 | 10.56° C | 38% | 1009.5 hPa | 0 mm | - | - | - |
| 1778096204 | 10.56° C | 38% | 1009.5 hPa | 0 mm | - | - | - |
| 1778095843 | 10.56° C | 38% | 1009.5 hPa | 0 mm | - | - | - |
| 1778095484 | 10.56° C | 37% | 1009.7 hPa | 0 mm | - | - | - |
| 1778095123 | 10.56° C | 35% | 0 hPa | 0 mm | - | - | - |
| 1778094763 | 11.11° C | 35% | 1009.4 hPa | 0 mm | - | - | - |
| 1778094405 | 11.11° C | 37% | 1009.5 hPa | 0 mm | - | - | - |
| 1778094044 | 10.56° C | 37% | 0 hPa | 0 mm | - | - | - |
| 1778093685 | 10.56° C | 36% | 1009.4 hPa | 0 mm | - | - | - |
| 1778093324 | 10.56° C | 36% | 0 hPa | 0 mm | - | - | - |
* Rain latest hour (hover to see other rain measurements)
** Current wind speed in m/s (hover to see current wind gust speed)